createdAt,value
2023-02-04T00:00:45.821Z,4.63
2023-02-04T00:01:27.903Z,4.61
2023-02-04T00:02:08.799Z,4.66
2023-02-04T00:02:55.848Z,4.46
2023-02-04T00:03:49.792Z,4.69
2023-02-04T00:04:43.821Z,4.65
2023-02-04T00:05:38.849Z,4.53
2023-02-04T00:06:32.832Z,4.36
2023-02-04T00:07:26.830Z,4.36
2023-02-04T00:08:13.822Z,4.36
2023-02-04T00:08:47.859Z,4.49
2023-02-04T00:09:34.823Z,4.31
2023-02-04T00:10:09.849Z,4.52
2023-02-04T00:10:56.797Z,4.35
2023-02-04T00:11:30.937Z,4.35
2023-02-04T00:12:17.790Z,4.44
2023-02-04T00:12:51.886Z,4.32
2023-02-04T00:13:39.823Z,4.17
2023-02-04T00:14:13.900Z,4.22
2023-02-04T00:15:00.774Z,4.38
2023-02-04T00:15:40.874Z,4.45
2023-02-04T00:16:20.778Z,4.21
2023-02-04T00:17:01.869Z,4.26
2023-02-04T00:17:41.885Z,4.37
2023-02-04T00:18:22.198Z,4.44
2023-02-04T00:19:02.800Z,4.33
2023-02-04T00:19:43.850Z,4.31
2023-02-04T00:20:25.928Z,4.39
2023-02-04T00:21:05.947Z,4.51
2023-02-04T00:21:45.787Z,4.18
2023-02-04T00:22:28.214Z,4.31
2023-02-04T00:23:08.790Z,4.35
2023-02-04T00:23:51.072Z,4.45
2023-02-04T00:24:30.849Z,4.33
2023-02-04T00:25:12.128Z,4.36
2023-02-04T00:25:52.775Z,4.37
2023-02-04T00:26:32.848Z,4.15
2023-02-04T00:27:13.763Z,4.16
2023-02-04T00:27:53.869Z,4.10
2023-02-04T00:28:33.840Z,4.15
2023-02-04T00:29:13.848Z,4.14
2023-02-04T00:29:53.786Z,4.22
2023-02-04T00:30:36.537Z,4.24
2023-02-04T00:31:16.885Z,4.03
2023-02-04T00:31:56.908Z,4.31
2023-02-04T00:32:36.816Z,4.07
2023-02-04T00:33:16.855Z,4.32
2023-02-04T00:33:56.774Z,4.28
2023-02-04T00:34:36.857Z,4.18
2023-02-04T00:35:17.870Z,4.21
2023-02-04T00:35:59.036Z,4.09
2023-02-04T00:36:38.794Z,4.17
2023-02-04T00:37:18.851Z,4.13
2023-02-04T00:37:58.780Z,4.19
2023-02-04T00:38:38.813Z,4.18
2023-02-04T00:39:19.771Z,3.95
2023-02-04T00:39:59.829Z,3.98
2023-02-04T00:40:39.818Z,4.15
2023-02-04T00:41:20.234Z,4.16
2023-02-04T00:42:00.765Z,4.24
2023-02-04T00:42:40.805Z,3.94
2023-02-04T00:43:20.780Z,4.15
2023-02-04T00:44:00.835Z,4.12
2023-02-04T00:44:42.759Z,4.14
2023-02-04T00:45:22.885Z,4.09
2023-02-04T00:46:02.852Z,3.76
2023-02-04T00:46:42.844Z,3.89
2023-02-04T00:47:23.761Z,3.88
2023-02-04T00:48:03.839Z,4.07
2023-02-04T00:48:43.739Z,4.06
2023-02-04T00:49:23.866Z,3.69
2023-02-04T00:50:03.774Z,3.89
2023-02-04T00:50:43.900Z,3.84
2023-02-04T00:51:24.783Z,3.69
2023-02-04T00:52:04.839Z,3.88
2023-02-04T00:52:44.764Z,3.84
2023-02-04T00:53:24.836Z,3.33
2023-02-04T00:54:04.747Z,3.57
2023-02-04T00:54:44.798Z,3.68
2023-02-04T00:55:25.743Z,3.71
2023-02-04T00:56:05.815Z,3.86
2023-02-04T00:56:45.780Z,3.60
2023-02-04T00:57:25.812Z,3.49
2023-02-04T00:58:05.753Z,3.49
2023-02-04T00:58:45.916Z,3.66
2023-02-04T00:59:26.738Z,3.62
2023-02-04T01:00:06.833Z,3.54
2023-02-04T01:00:46.763Z,3.76
2023-02-04T01:01:26.808Z,3.58
2023-02-04T01:02:06.768Z,3.60
2023-02-04T01:02:46.951Z,3.53
2023-02-04T01:03:27.750Z,3.43
2023-02-04T01:04:07.839Z,3.54
2023-02-04T01:04:47.751Z,3.64
2023-02-04T01:05:27.849Z,3.59
2023-02-04T01:06:07.719Z,3.52
2023-02-04T01:06:47.814Z,3.46
2023-02-04T01:07:28.783Z,3.40
2023-02-04T01:08:08.835Z,3.53
2023-02-04T01:08:48.742Z,3.52
2023-02-04T01:09:28.807Z,3.54
2023-02-04T01:10:09.746Z,3.57
2023-02-04T01:11:03.755Z,3.53
2023-02-04T01:11:57.746Z,3.19
2023-02-04T01:12:44.758Z,3.16
2023-02-04T01:13:18.846Z,3.33
2023-02-04T01:14:06.744Z,2.97
2023-02-04T01:14:40.771Z,3.05
2023-02-04T01:15:28.782Z,2.84
2023-02-04T01:16:09.871Z,3.24
2023-02-04T01:16:49.827Z,3.20
2023-02-04T01:17:29.786Z,3.16
2023-02-04T01:18:09.751Z,3.13
2023-02-04T01:18:49.872Z,3.24
2023-02-04T01:19:29.720Z,2.84
2023-02-04T01:20:10.811Z,2.81
2023-02-04T01:20:50.710Z,2.96
2023-02-04T01:21:31.783Z,3.05
2023-02-04T01:22:11.735Z,2.93
2023-02-04T01:22:51.831Z,2.90
2023-02-04T01:23:31.780Z,3.17
2023-02-04T01:24:12.796Z,3.14
2023-02-04T01:24:52.732Z,3.07
2023-02-04T01:25:32.789Z,3.05
2023-02-04T01:26:12.715Z,2.97
2023-02-04T01:26:52.795Z,2.97
2023-02-04T01:27:32.709Z,2.94
2023-02-04T01:28:13.867Z,2.90
2023-02-04T01:28:54.762Z,3.15
2023-02-04T01:29:34.794Z,3.12
2023-02-04T01:30:15.744Z,3.12
2023-02-04T01:30:55.880Z,2.96
2023-02-04T01:31:37.768Z,2.87
2023-02-04T01:32:18.782Z,3.12
2023-02-04T01:32:58.711Z,2.99
2023-02-04T01:33:38.769Z,2.91
2023-02-04T01:34:18.718Z,2.88
2023-02-04T01:34:58.787Z,2.91
2023-02-04T01:35:38.741Z,3.04
2023-02-04T01:36:21.681Z,3.04
2023-02-04T01:37:01.714Z,2.92
2023-02-04T01:37:41.767Z,2.79
2023-02-04T01:38:21.700Z,2.70
2023-02-04T01:39:01.837Z,2.85
2023-02-04T01:39:43.732Z,2.90
2023-02-04T01:40:24.768Z,2.87
2023-02-04T01:41:04.707Z,2.90
2023-02-04T01:41:44.787Z,2.80
2023-02-04T01:42:24.702Z,2.74
2023-02-04T01:43:04.788Z,2.87
2023-02-04T01:43:44.707Z,2.97
2023-02-04T01:44:25.800Z,2.97
2023-02-04T01:45:05.750Z,2.91
2023-02-04T01:45:45.827Z,2.95
2023-02-04T01:46:25.689Z,2.98
2023-02-04T01:47:05.779Z,2.51
2023-02-04T01:47:46.692Z,2.64
2023-02-04T01:48:28.984Z,2.88
2023-02-04T01:49:08.725Z,2.79
2023-02-04T01:49:48.765Z,2.88
2023-02-04T01:50:29.203Z,2.80
2023-02-04T01:51:13.782Z,2.86
2023-02-04T01:51:53.685Z,2.98
2023-02-04T01:52:38.177Z,2.82
2023-02-04T01:53:25.697Z,2.80
2023-02-04T01:54:06.763Z,2.59
2023-02-04T01:54:46.702Z,2.75
2023-02-04T01:55:39.705Z,2.76
2023-02-04T01:56:20.496Z,2.83
2023-02-04T01:57:08.691Z,2.89
2023-02-04T01:57:43.252Z,2.86
2023-02-04T01:58:31.713Z,2.92
2023-02-04T01:59:12.755Z,2.98
2023-02-04T02:00:01.671Z,2.84
2023-02-04T02:00:35.534Z,2.77
2023-02-04T02:01:53.757Z,2.79
2023-02-04T02:02:58.762Z,2.68
2023-02-04T02:03:32.384Z,2.72
2023-02-04T02:04:13.683Z,2.70
2023-02-04T02:04:47.738Z,2.69
2023-02-04T02:05:29.792Z,2.47
2023-02-04T02:06:10.677Z,2.58
2023-02-04T02:06:48.723Z,2.72
2023-02-04T02:07:28.678Z,2.72
2023-02-04T02:08:10.776Z,2.84
2023-02-04T02:08:50.684Z,2.69
2023-02-04T02:09:34.761Z,2.60
2023-02-04T02:10:17.712Z,2.69
2023-02-04T02:10:58.735Z,2.48
2023-02-04T02:11:39.669Z,2.82
2023-02-04T02:12:19.726Z,2.72
2023-02-04T02:13:01.708Z,2.81
2023-02-04T02:13:41.719Z,2.83
2023-02-04T02:14:22.685Z,2.83
2023-02-04T02:15:03.727Z,2.91
2023-02-04T02:15:43.680Z,2.65
2023-02-04T02:16:24.746Z,2.81
2023-02-04T02:17:04.660Z,2.61
2023-02-04T02:17:45.730Z,2.91
2023-02-04T02:18:25.666Z,2.81
2023-02-04T02:19:06.720Z,2.95
2023-02-04T02:19:46.646Z,2.76
2023-02-04T02:20:33.094Z,2.76
2023-02-04T02:21:16.660Z,2.92
2023-02-04T02:22:05.019Z,2.72
2023-02-04T02:23:24.654Z,2.83
2023-02-04T02:24:07.657Z,2.90
2023-02-04T02:24:47.724Z,2.85
2023-02-04T02:25:27.714Z,2.49
2023-02-04T02:26:07.706Z,2.71
2023-02-04T02:26:47.643Z,2.79
2023-02-04T02:27:28.722Z,2.65
2023-02-04T02:28:11.704Z,2.78
2023-02-04T02:28:54.669Z,2.86
2023-02-04T02:29:29.739Z,2.89
2023-02-04T02:30:04.544Z,2.73
2023-02-04T02:30:45.781Z,2.86
2023-02-04T02:31:23.888Z,2.95
2023-02-04T02:31:58.096Z,2.73
2023-02-04T02:32:38.630Z,2.72
2023-02-04T02:33:14.787Z,2.78
2023-02-04T02:33:48.612Z,2.75
2023-02-04T02:34:29.662Z,2.43
2023-02-04T02:35:03.734Z,2.42
2023-02-04T02:35:37.376Z,2.40
2023-02-04T02:36:17.636Z,2.45
2023-02-04T02:36:51.716Z,2.62
2023-02-04T02:37:25.450Z,2.63
2023-02-04T02:38:06.633Z,2.58
2023-02-04T02:38:40.722Z,2.44
2023-02-04T02:39:14.356Z,2.32
2023-02-04T02:39:54.643Z,2.50
2023-02-04T02:40:29.125Z,2.64
2023-02-04T02:41:03.820Z,2.50
2023-02-04T02:41:43.643Z,2.65
2023-02-04T02:42:22.688Z,2.67
2023-02-04T02:42:56.379Z,2.66
2023-02-04T02:43:37.631Z,2.37
2023-02-04T02:44:11.690Z,2.58
2023-02-04T02:44:46.092Z,2.55
2023-02-04T02:45:35.670Z,2.60
2023-02-04T02:46:10.157Z,2.65
2023-02-04T02:46:44.660Z,2.67
2023-02-04T02:47:27.653Z,2.70
2023-02-04T02:48:03.790Z,2.47
2023-02-04T02:48:37.318Z,2.31
2023-02-04T02:49:23.624Z,2.39
2023-02-04T02:49:59.687Z,2.40
2023-02-04T02:50:34.042Z,2.52
2023-02-04T02:51:13.672Z,2.46
2023-02-04T02:51:47.677Z,2.44
2023-02-04T02:52:22.817Z,2.61
2023-02-04T02:53:03.606Z,2.61
2023-02-04T02:53:37.704Z,2.59
2023-02-04T02:54:24.276Z,2.72
2023-02-04T02:55:04.622Z,2.74
2023-02-04T02:55:38.701Z,2.70
2023-02-04T02:56:12.301Z,2.56
2023-02-04T02:56:52.637Z,2.66
2023-02-04T02:57:29.753Z,2.63
2023-02-04T02:58:03.427Z,2.64
2023-02-04T02:58:44.615Z,2.36
2023-02-04T02:59:22.788Z,2.48
2023-02-04T02:59:56.303Z,2.47
2023-02-04T03:00:36.629Z,2.29
2023-02-04T03:01:13.762Z,2.46
2023-02-04T03:01:51.146Z,2.47
2023-02-04T03:02:31.719Z,2.49
2023-02-04T03:03:22.248Z,2.52
2023-02-04T03:04:09.604Z,2.58
2023-02-04T03:04:53.668Z,2.39
2023-02-04T03:05:47.582Z,2.00
2023-02-04T03:06:28.669Z,2.15
2023-02-04T03:07:16.634Z,2.50
2023-02-04T03:07:57.650Z,2.55
2023-02-04T03:08:52.600Z,2.41
2023-02-04T03:09:47.596Z,2.51
2023-02-04T03:10:41.609Z,2.51
2023-02-04T03:11:36.581Z,2.65
2023-02-04T03:12:30.604Z,2.66
2023-02-04T03:13:19.622Z,2.54
2023-02-04T03:13:53.654Z,2.44
2023-02-04T03:14:41.599Z,2.64
2023-02-04T03:15:15.646Z,2.50
2023-02-04T03:16:02.657Z,2.37
2023-02-04T03:16:37.947Z,2.63
2023-02-04T03:17:24.578Z,2.54
2023-02-04T03:17:58.711Z,2.62
2023-02-04T03:18:39.595Z,2.58
2023-02-04T03:19:19.656Z,2.60
2023-02-04T03:20:00.593Z,2.77
2023-02-04T03:20:40.978Z,2.68
2023-02-04T03:21:20.584Z,2.66
2023-02-04T03:22:01.655Z,2.34
2023-02-04T03:22:41.585Z,2.25
2023-02-04T03:23:21.831Z,2.38
2023-02-04T03:24:03.588Z,2.38
2023-02-04T03:24:43.645Z,2.43
2023-02-04T03:25:23.581Z,2.23
2023-02-04T03:26:03.653Z,2.18
2023-02-04T03:26:44.586Z,2.37
2023-02-04T03:27:25.640Z,2.40
2023-02-04T03:28:06.751Z,2.36
2023-02-04T03:28:48.643Z,2.21
2023-02-04T03:29:29.889Z,1.88
2023-02-04T03:30:11.639Z,1.85
2023-02-04T03:31:02.625Z,1.95
2023-02-04T03:31:43.683Z,2.06
2023-02-04T03:32:23.585Z,2.15
2023-02-04T03:33:17.589Z,2.05
2023-02-04T03:34:11.578Z,2.20
2023-02-04T03:34:51.614Z,2.23
2023-02-04T03:35:31.696Z,2.15
2023-02-04T03:36:12.561Z,2.15
2023-02-04T03:36:52.632Z,2.06
2023-02-04T03:37:33.566Z,2.24
2023-02-04T03:38:13.627Z,2.18
2023-02-04T03:38:53.580Z,2.26
2023-02-04T03:39:33.711Z,1.99
2023-02-04T03:40:15.607Z,2.07
2023-02-04T03:40:55.763Z,2.32
2023-02-04T03:41:36.574Z,2.32
2023-02-04T03:42:17.683Z,2.21
2023-02-04T03:42:57.547Z,1.91
2023-02-04T03:43:37.633Z,2.20
2023-02-04T03:44:17.556Z,2.26
2023-02-04T03:44:57.652Z,2.25
2023-02-04T03:45:45.360Z,2.12
2023-02-04T03:46:27.385Z,2.20
2023-02-04T03:47:07.586Z,2.06
2023-02-04T03:47:47.699Z,1.91
2023-02-04T03:48:27.558Z,2.00
2023-02-04T03:49:07.639Z,2.08
2023-02-04T03:49:47.575Z,1.83
2023-02-04T03:50:27.668Z,1.85
2023-02-04T03:51:07.564Z,2.00
2023-02-04T03:51:47.642Z,2.07
2023-02-04T03:52:27.575Z,2.11
2023-02-04T03:53:07.639Z,1.98
2023-02-04T03:53:47.557Z,1.72
2023-02-04T03:54:27.628Z,1.86
2023-02-04T03:55:07.559Z,1.86
2023-02-04T03:55:47.610Z,1.99
2023-02-04T03:56:27.607Z,2.00
2023-02-04T03:57:07.707Z,1.98
2023-02-04T03:57:47.548Z,1.95
2023-02-04T03:58:27.619Z,1.97
2023-02-04T03:59:07.557Z,1.95
2023-02-04T03:59:47.614Z,1.97
2023-02-04T04:00:27.554Z,2.05
2023-02-04T04:01:07.612Z,2.06
2023-02-04T04:01:47.594Z,1.93
2023-02-04T04:02:28.641Z,1.69
2023-02-04T04:03:08.571Z,1.96
2023-02-04T04:04:02.569Z,1.74
2023-02-04T04:04:56.557Z,1.68
2023-02-04T04:05:50.545Z,1.82
2023-02-04T04:06:44.539Z,1.88
2023-02-04T04:07:24.566Z,1.83
2023-02-04T04:08:04.619Z,2.07
2023-02-04T04:08:45.543Z,1.98
2023-02-04T04:09:25.614Z,2.03
2023-02-04T04:10:05.527Z,2.04
2023-02-04T04:10:45.974Z,2.12
2023-02-04T04:11:25.559Z,2.05
2023-02-04T04:12:05.598Z,2.05
2023-02-04T04:12:45.577Z,1.78
2023-02-04T04:13:25.659Z,1.75
2023-02-04T04:14:05.536Z,1.76
2023-02-04T04:14:45.589Z,1.59
2023-02-04T04:15:25.526Z,1.41
2023-02-04T04:16:05.610Z,1.51
2023-02-04T04:16:45.523Z,1.80
2023-02-04T04:17:25.579Z,1.80
2023-02-04T04:18:05.568Z,1.50
2023-02-04T04:18:45.599Z,1.77
2023-02-04T04:19:25.531Z,1.75
2023-02-04T04:20:05.830Z,1.65
2023-02-04T04:20:45.537Z,1.77
2023-02-04T04:21:25.580Z,1.77
2023-02-04T04:22:05.519Z,1.90
2023-02-04T04:22:46.633Z,1.67
2023-02-04T04:23:26.529Z,1.87
2023-02-04T04:24:07.663Z,2.03
2023-02-04T04:24:49.526Z,1.97
2023-02-04T04:25:29.609Z,1.44
2023-02-04T04:26:09.531Z,1.93
2023-02-04T04:26:49.582Z,1.79
2023-02-04T04:27:29.540Z,1.68
2023-02-04T04:28:09.697Z,1.41
2023-02-04T04:28:49.520Z,1.54
2023-02-04T04:29:29.590Z,1.79
2023-02-04T04:30:10.505Z,1.76
2023-02-04T04:30:50.596Z,1.89
2023-02-04T04:31:30.597Z,1.85
2023-02-04T04:32:10.651Z,2.03
2023-02-04T04:32:50.522Z,1.94
2023-02-04T04:33:30.587Z,2.24
2023-02-04T04:34:10.524Z,2.09
2023-02-04T04:34:50.566Z,2.05
2023-02-04T04:35:30.501Z,2.18
2023-02-04T04:36:11.552Z,1.71
2023-02-04T04:36:51.492Z,1.64
2023-02-04T04:37:31.628Z,1.81
2023-02-04T04:38:11.502Z,1.90
2023-02-04T04:38:51.569Z,1.72
2023-02-04T04:39:32.516Z,1.85
2023-02-04T04:40:13.618Z,1.83
2023-02-04T04:40:53.505Z,1.89
2023-02-04T04:41:33.560Z,1.93
2023-02-04T04:42:13.482Z,1.63
2023-02-04T04:42:53.561Z,1.53
2023-02-04T04:43:33.475Z,1.66
2023-02-04T04:44:13.579Z,1.69
2023-02-04T04:44:53.518Z,1.81
2023-02-04T04:45:33.588Z,1.85
2023-02-04T04:46:13.493Z,1.91
2023-02-04T04:46:53.579Z,1.78
2023-02-04T04:47:33.486Z,1.85
2023-02-04T04:48:13.556Z,1.73
2023-02-04T04:48:53.468Z,1.55
2023-02-04T04:49:33.595Z,1.56
2023-02-04T04:50:14.562Z,1.71
2023-02-04T04:50:55.568Z,2.00
2023-02-04T04:51:38.478Z,2.04
2023-02-04T04:52:18.542Z,1.68
2023-02-04T04:52:58.495Z,1.87
2023-02-04T04:53:38.565Z,1.78
2023-02-04T04:54:18.480Z,1.78
2023-02-04T04:54:58.568Z,1.63
2023-02-04T04:55:39.484Z,1.69
2023-02-04T04:56:19.518Z,1.52
2023-02-04T04:56:59.535Z,1.95
2023-02-04T04:57:39.610Z,2.09
2023-02-04T04:58:19.479Z,1.76
2023-02-04T04:58:59.563Z,2.11
2023-02-04T04:59:39.474Z,2.19
2023-02-04T05:00:25.530Z,1.70
2023-02-04T05:01:05.519Z,1.82
2023-02-04T05:01:45.553Z,1.90
2023-02-04T05:02:48.464Z,1.79
2023-02-04T05:03:35.577Z,1.79
2023-02-04T05:04:16.479Z,1.91
2023-02-04T05:04:56.578Z,2.04
2023-02-04T05:05:36.472Z,2.10
2023-02-04T05:06:23.498Z,1.62
2023-02-04T05:07:17.462Z,2.01
2023-02-04T05:08:11.458Z,1.71
2023-02-04T05:09:08.463Z,1.74
2023-02-04T05:10:02.512Z,1.79
2023-02-04T05:10:57.488Z,2.12
2023-02-04T05:11:44.504Z,2.20
2023-02-04T05:12:18.606Z,2.10
2023-02-04T05:13:05.457Z,2.21
2023-02-04T05:13:39.528Z,2.17
2023-02-04T05:14:26.454Z,2.19
2023-02-04T05:15:00.555Z,2.32
2023-02-04T05:15:48.454Z,2.10
2023-02-04T05:16:22.616Z,2.29
2023-02-04T05:17:09.517Z,2.02
2023-02-04T05:17:43.571Z,1.98
2023-02-04T05:18:30.459Z,2.21
2023-02-04T05:19:04.526Z,2.19
2023-02-04T05:19:51.471Z,2.07
2023-02-04T05:20:25.524Z,1.83
2023-02-04T05:21:13.458Z,1.81
2023-02-04T05:21:47.517Z,1.97
2023-02-04T05:22:34.464Z,2.08
2023-02-04T05:23:08.527Z,2.16
2023-02-04T05:23:55.461Z,2.12
2023-02-04T05:24:29.532Z,2.09
2023-02-04T05:25:17.477Z,1.99
2023-02-04T05:25:51.523Z,1.92
2023-02-04T05:26:39.439Z,2.19
2023-02-04T05:27:13.519Z,2.11
2023-02-04T05:27:53.492Z,2.33
2023-02-04T05:28:33.495Z,2.40
2023-02-04T05:29:13.437Z,1.88
2023-02-04T05:29:53.523Z,1.68
2023-02-04T05:30:33.894Z,2.02
2023-02-04T05:31:14.611Z,1.73
2023-02-04T05:31:54.456Z,1.85
2023-02-04T05:32:34.579Z,1.84
2023-02-04T05:33:14.461Z,1.82
2023-02-04T05:33:54.593Z,1.74
2023-02-04T05:34:34.459Z,1.56
2023-02-04T05:35:15.493Z,1.66
2023-02-04T05:35:55.443Z,1.76
2023-02-04T05:36:35.521Z,1.63
2023-02-04T05:37:15.442Z,1.84
2023-02-04T05:37:55.533Z,2.07
2023-02-04T05:38:35.462Z,1.90
2023-02-04T05:39:15.492Z,1.88
2023-02-04T05:39:55.431Z,1.96
2023-02-04T05:40:35.501Z,1.95
2023-02-04T05:41:15.429Z,1.99
2023-02-04T05:41:55.484Z,2.05
2023-02-04T05:42:35.438Z,2.02
2023-02-04T05:43:15.507Z,1.86
2023-02-04T05:43:55.459Z,1.93
2023-02-04T05:44:35.516Z,1.89
2023-02-04T05:45:25.445Z,2.12
2023-02-04T05:46:05.602Z,2.15
2023-02-04T05:46:45.417Z,2.00
2023-02-04T05:47:25.469Z,1.95
2023-02-04T05:48:05.414Z,1.91
2023-02-04T05:48:45.504Z,1.72
2023-02-04T05:49:25.462Z,1.74
2023-02-04T05:50:06.348Z,2.04
2023-02-04T05:50:46.427Z,2.04
2023-02-04T05:51:26.517Z,2.08
2023-02-04T05:52:06.420Z,1.94
2023-02-04T05:52:46.586Z,1.94
2023-02-04T05:53:26.414Z,1.97
2023-02-04T05:54:06.475Z,2.02
2023-02-04T05:54:47.477Z,2.08
2023-02-04T05:55:27.580Z,1.95
2023-02-04T05:56:07.428Z,1.90
2023-02-04T05:56:47.523Z,1.96
2023-02-04T05:57:27.428Z,1.68
2023-02-04T05:58:07.543Z,1.62
2023-02-04T05:58:47.415Z,1.57
2023-02-04T05:59:27.468Z,1.56
2023-02-04T06:00:07.433Z,1.77
2023-02-04T06:00:47.479Z,1.64
2023-02-04T06:01:27.394Z,1.88
2023-02-04T06:02:07.479Z,1.98
2023-02-04T06:02:48.443Z,1.99
2023-02-04T06:03:28.608Z,2.04
2023-02-04T06:04:08.446Z,2.05
2023-02-04T06:04:48.539Z,2.05
2023-02-04T06:05:29.436Z,1.83
2023-02-04T06:06:09.500Z,1.72
2023-02-04T06:06:50.382Z,1.62
2023-02-04T06:07:30.474Z,1.62
2023-02-04T06:08:11.383Z,1.66
2023-02-04T06:08:51.477Z,1.48
2023-02-04T06:09:31.450Z,1.37
2023-02-04T06:10:11.484Z,1.52
2023-02-04T06:10:52.426Z,1.67
2023-02-04T06:11:32.461Z,1.62
2023-02-04T06:12:12.393Z,1.47
2023-02-04T06:12:52.466Z,1.50
2023-02-04T06:13:32.385Z,1.66
2023-02-04T06:14:12.474Z,1.54
2023-02-04T06:14:52.377Z,1.59
2023-02-04T06:15:32.456Z,1.86
2023-02-04T06:16:14.912Z,1.68
2023-02-04T06:16:55.494Z,1.61
2023-02-04T06:17:35.428Z,1.76
2023-02-04T06:18:15.494Z,1.59
2023-02-04T06:18:55.392Z,1.51
2023-02-04T06:19:35.455Z,1.61
2023-02-04T06:20:17.385Z,1.58
2023-02-04T06:20:57.430Z,1.58
2023-02-04T06:21:37.439Z,1.69
2023-02-04T06:22:17.538Z,1.49
2023-02-04T06:22:58.386Z,1.39
2023-02-04T06:23:39.491Z,1.39
2023-02-04T06:24:19.374Z,1.62
2023-02-04T06:24:59.447Z,1.63
2023-02-04T06:25:39.369Z,1.69
2023-02-04T06:26:19.437Z,1.64
2023-02-04T06:26:59.395Z,1.29
2023-02-04T06:27:39.732Z,1.67
2023-02-04T06:28:19.441Z,1.72
2023-02-04T06:29:00.452Z,1.66
2023-02-04T06:29:40.394Z,1.50
2023-02-04T06:30:21.440Z,1.78
2023-02-04T06:31:01.445Z,1.76
2023-02-04T06:31:41.601Z,1.57
2023-02-04T06:32:21.398Z,1.73
2023-02-04T06:33:01.488Z,1.82
2023-02-04T06:33:43.376Z,1.73
2023-02-04T06:34:23.427Z,1.92
2023-02-04T06:35:03.379Z,1.99
2023-02-04T06:35:43.481Z,2.10
2023-02-04T06:36:23.381Z,2.03
2023-02-04T06:37:03.488Z,1.95
2023-02-04T06:37:43.417Z,2.04
2023-02-04T06:38:23.423Z,1.96
2023-02-04T06:39:04.366Z,1.81
2023-02-04T06:39:44.573Z,1.84
2023-02-04T06:40:24.360Z,1.73
2023-02-04T06:41:04.432Z,1.76
2023-02-04T06:41:44.373Z,1.66
2023-02-04T06:42:25.329Z,1.46
2023-02-04T06:43:05.380Z,1.67
2023-02-04T06:43:45.414Z,1.79
2023-02-04T06:44:25.354Z,1.75
2023-02-04T06:45:05.427Z,1.81
2023-02-04T06:45:45.393Z,2.00
2023-02-04T06:46:25.481Z,1.91
2023-02-04T06:47:05.337Z,1.93
2023-02-04T06:47:45.494Z,2.03
2023-02-04T06:48:26.387Z,1.87
2023-02-04T06:49:06.420Z,1.66
2023-02-04T06:49:46.348Z,1.73
2023-02-04T06:50:26.420Z,1.63
2023-02-04T06:51:06.353Z,1.65
2023-02-04T06:51:46.484Z,1.82
2023-02-04T06:52:26.349Z,1.98
2023-02-04T06:53:06.390Z,1.92
2023-02-04T06:53:47.365Z,1.76
2023-02-04T06:54:27.439Z,1.48
2023-02-04T06:55:07.350Z,1.74
2023-02-04T06:55:48.438Z,1.73
2023-02-04T06:56:28.349Z,1.83
2023-02-04T06:57:08.470Z,1.50
2023-02-04T06:57:49.343Z,1.70
2023-02-04T06:58:29.415Z,1.72
2023-02-04T06:59:09.386Z,1.74
2023-02-04T06:59:49.382Z,1.92
2023-02-04T07:00:29.602Z,1.66
2023-02-04T07:01:10.462Z,1.86
2023-02-04T07:01:50.363Z,1.76
2023-02-04T07:02:30.435Z,1.75
2023-02-04T07:03:11.339Z,1.79
2023-02-04T07:03:51.410Z,1.90
2023-02-04T07:04:31.347Z,2.00
2023-02-04T07:05:12.395Z,1.98
2023-02-04T07:05:52.318Z,1.85
2023-02-04T07:06:32.403Z,1.91
2023-02-04T07:07:12.352Z,2.03
2023-02-04T07:07:52.450Z,1.70
2023-02-04T07:08:32.344Z,1.62
2023-02-04T07:09:12.387Z,1.77
2023-02-04T07:09:52.362Z,1.76
2023-02-04T07:10:32.951Z,1.94
2023-02-04T07:11:14.322Z,1.94
2023-02-04T07:11:54.554Z,1.74
2023-02-04T07:12:34.321Z,1.90
2023-02-04T07:13:14.395Z,1.97
2023-02-04T07:13:54.343Z,2.03
2023-02-04T07:14:34.442Z,2.13
2023-02-04T07:15:15.357Z,2.23
2023-02-04T07:15:55.481Z,2.07
2023-02-04T07:16:35.356Z,2.21
2023-02-04T07:17:15.388Z,2.20
2023-02-04T07:17:55.318Z,2.08
2023-02-04T07:18:35.421Z,2.12
2023-02-04T07:19:15.313Z,1.93
2023-02-04T07:19:56.303Z,1.89
2023-02-04T07:20:36.348Z,2.14
2023-02-04T07:21:16.395Z,2.18
2023-02-04T07:22:00.326Z,2.19
2023-02-04T07:22:41.131Z,2.13
2023-02-04T07:23:21.322Z,1.96
2023-02-04T07:24:01.378Z,1.91
2023-02-04T07:24:42.336Z,2.03
2023-02-04T07:25:22.420Z,2.03
2023-02-04T07:26:04.329Z,1.95
2023-02-04T07:26:44.419Z,1.99
2023-02-04T07:27:24.329Z,1.97
2023-02-04T07:28:05.588Z,2.00
2023-02-04T07:28:47.316Z,2.14
2023-02-04T07:29:27.384Z,2.26
2023-02-04T07:30:07.307Z,2.27
2023-02-04T07:30:47.504Z,2.28
2023-02-04T07:31:27.401Z,2.21
2023-02-04T07:32:07.466Z,2.31
2023-02-04T07:32:47.298Z,2.06
2023-02-04T07:33:27.440Z,2.07
2023-02-04T07:34:07.320Z,1.94
2023-02-04T07:34:48.099Z,2.21
2023-02-04T07:35:28.317Z,2.26
2023-02-04T07:36:08.380Z,2.26
2023-02-04T07:36:48.359Z,2.42
2023-02-04T07:37:29.383Z,2.33
2023-02-04T07:38:09.297Z,2.23
2023-02-04T07:38:49.380Z,2.32
2023-02-04T07:39:29.312Z,2.37
2023-02-04T07:40:09.374Z,2.57
2023-02-04T07:40:49.314Z,2.66
2023-02-04T07:41:30.366Z,2.61
2023-02-04T07:42:10.329Z,2.56
2023-02-04T07:42:50.360Z,2.42
2023-02-04T07:43:30.289Z,2.49
2023-02-04T07:44:11.351Z,2.67
2023-02-04T07:44:51.284Z,2.76
2023-02-04T07:45:31.335Z,2.67
2023-02-04T07:46:12.320Z,2.55
2023-02-04T07:46:52.347Z,2.76
2023-02-04T07:47:32.312Z,2.68
2023-02-04T07:48:12.426Z,2.71
2023-02-04T07:48:52.282Z,2.63
2023-02-04T07:49:32.442Z,2.75
2023-02-04T07:50:13.276Z,2.69
2023-02-04T07:50:53.335Z,2.61
2023-02-04T07:51:33.260Z,2.69
2023-02-04T07:52:13.384Z,2.57
2023-02-04T07:52:53.336Z,2.66
2023-02-04T07:53:33.355Z,2.73
2023-02-04T07:54:13.282Z,2.37
2023-02-04T07:54:53.377Z,2.31
2023-02-04T07:55:33.271Z,2.65
2023-02-04T07:56:13.340Z,2.87
2023-02-04T07:56:53.272Z,2.83
2023-02-04T07:57:33.478Z,2.71
2023-02-04T07:58:13.288Z,2.83
2023-02-04T07:58:53.332Z,2.75
2023-02-04T07:59:33.276Z,2.83
2023-02-04T08:00:14.471Z,2.72
2023-02-04T08:00:54.294Z,2.69
2023-02-04T08:01:34.428Z,2.83
2023-02-04T08:02:16.265Z,2.95
2023-02-04T08:02:56.371Z,2.95
2023-02-04T08:03:37.171Z,2.95
2023-02-04T08:04:17.308Z,2.84
2023-02-04T08:04:57.249Z,2.73
2023-02-04T08:05:37.351Z,2.81
2023-02-04T08:06:18.268Z,2.97
2023-02-04T08:06:58.328Z,2.90
2023-02-04T08:07:38.262Z,2.75
2023-02-04T08:08:18.335Z,2.67
2023-02-04T08:08:58.277Z,2.72
2023-02-04T08:09:38.325Z,2.56
2023-02-04T08:10:19.258Z,2.67
2023-02-04T08:10:59.311Z,2.60
2023-02-04T08:11:39.243Z,2.64
2023-02-04T08:12:19.413Z,2.68
2023-02-04T08:12:59.264Z,2.74
2023-02-04T08:13:39.342Z,2.81
2023-02-04T08:14:20.273Z,2.80
2023-02-04T08:15:01.290Z,2.90
2023-02-04T08:15:41.301Z,2.77
2023-02-04T08:16:21.371Z,2.85
2023-02-04T08:17:01.238Z,2.84
2023-02-04T08:17:42.311Z,2.74
2023-02-04T08:18:24.236Z,2.77
2023-02-04T08:19:04.317Z,2.77
2023-02-04T08:19:44.300Z,2.66
2023-02-04T08:20:24.384Z,2.54
2023-02-04T08:21:06.262Z,2.68
2023-02-04T08:21:46.294Z,2.65
2023-02-04T08:22:26.235Z,2.84
2023-02-04T08:23:06.459Z,2.65
2023-02-04T08:23:48.474Z,2.78
2023-02-04T08:24:28.328Z,2.86
2023-02-04T08:25:10.274Z,2.89
2023-02-04T08:25:50.298Z,2.79
2023-02-04T08:26:30.230Z,2.92
2023-02-04T08:27:11.356Z,2.95
2023-02-04T08:27:51.234Z,3.09
2023-02-04T08:28:31.290Z,2.97
2023-02-04T08:29:11.227Z,2.88
2023-02-04T08:29:51.283Z,2.84
2023-02-04T08:30:33.479Z,2.79
2023-02-04T08:31:15.393Z,3.01
2023-02-04T08:31:55.280Z,2.90
2023-02-04T08:32:35.386Z,2.95
2023-02-04T08:33:15.228Z,2.98
2023-02-04T08:33:56.301Z,3.12
2023-02-04T08:34:37.225Z,2.99
2023-02-04T08:35:17.279Z,2.89
2023-02-04T08:35:58.236Z,2.86
2023-02-04T08:36:39.290Z,2.81
2023-02-04T08:37:19.212Z,3.00
2023-02-04T08:37:59.283Z,3.09
2023-02-04T08:38:39.228Z,2.97
2023-02-04T08:39:19.287Z,3.02
2023-02-04T08:40:00.244Z,2.99
2023-02-04T08:40:40.292Z,2.91
2023-02-04T08:41:20.230Z,2.93
2023-02-04T08:42:00.270Z,2.93
2023-02-04T08:42:41.199Z,2.99
2023-02-04T08:43:21.309Z,3.06
2023-02-04T08:44:01.192Z,3.08
2023-02-04T08:44:41.294Z,3.22
2023-02-04T08:45:22.231Z,3.25
2023-02-04T08:46:02.283Z,3.31
2023-02-04T08:46:42.251Z,3.41
2023-02-04T08:47:22.309Z,3.49
2023-02-04T08:48:02.212Z,3.50
2023-02-04T08:48:42.661Z,3.37
2023-02-04T08:49:22.224Z,3.34
2023-02-04T08:50:02.338Z,3.28
2023-02-04T08:50:42.468Z,3.30
2023-02-04T08:51:22.298Z,3.44
2023-02-04T08:52:02.241Z,3.26
2023-02-04T08:52:42.298Z,3.36
2023-02-04T08:53:22.234Z,3.58
2023-02-04T08:54:03.298Z,3.56
2023-02-04T08:54:43.225Z,3.71
2023-02-04T08:55:23.289Z,3.63
2023-02-04T08:56:03.222Z,3.45
2023-02-04T08:56:43.304Z,3.49
2023-02-04T08:57:24.257Z,3.62
2023-02-04T08:58:04.284Z,3.77
2023-02-04T08:58:46.248Z,3.60
2023-02-04T08:59:26.626Z,3.58
2023-02-04T09:00:06.235Z,3.49
2023-02-04T09:00:46.371Z,3.35
2023-02-04T09:01:27.359Z,3.36
2023-02-04T09:02:08.318Z,3.44
2023-02-04T09:02:49.260Z,3.59
2023-02-04T09:03:29.636Z,3.51
2023-02-04T09:04:10.214Z,3.43
2023-02-04T09:04:50.337Z,3.61